Time;durP1;ratioP1;P1;durP2;ratioP2;P2;SDS_P1;SDS_P2;PMS_P1;PMS_P2;Temp;Humidity;BMP_temperature;BMP_pressure;BME280_temperature;BME280_humidity;BME280_pressure;Samples;Min_cycle;Max_cycle;Signal;HPM_P1;HPM_P2
2024/01/31 00:02:11;;;;;;;5.8;4.2;;;;;;;4.89;75.44336;952.805;;;;
2024/01/31 00:04:36;;;;;;;4.4;3.3;;;;;;;4.71;76.00781;952.7642;;;;
2024/01/31 00:07:01;;;;;;;4.6;3.2;;;;;;;4.55;76.56641;952.7757;;;;
2024/01/31 00:09:26;;;;;;;4.5;3;;;;;;;4.65;76.3125;952.7072;;;;
2024/01/31 00:11:52;;;;;;;4.5;3.3;;;;;;;4.6;76.38281;952.7316;;;;
2024/01/31 00:14:18;;;;;;;4.6;3;;;;;;;4.55;76.35059;952.7511;;;;
2024/01/31 00:16:42;;;;;;;4.4;3.3;;;;;;;4.58;76.55762;952.6951;;;;
2024/01/31 00:19:07;;;;;;;4.3;2.8;;;;;;;4.61;76.5625;952.692;;;;
2024/01/31 00:21:32;;;;;;;4.2;3.2;;;;;;;4.64;76.61621;952.6618;;;;
2024/01/31 00:23:57;;;;;;;5.4;3.2;;;;;;;4.62;77.0166;952.5901;;;;
2024/01/31 00:26:23;;;;;;;5.2;3.3;;;;;;;4.57;77.10938;952.6503;;;;
2024/01/31 00:28:49;;;;;;;5.7;3.2;;;;;;;4.65;76.93164;952.6627;;;;
2024/01/31 00:31:13;;;;;;;5.8;3.6;;;;;;;4.57;77.16602;952.7184;;;;
2024/01/31 00:33:38;;;;;;;8.5;4.5;;;;;;;4.59;77.14648;952.6625;;;;
2024/01/31 00:36:03;;;;;;;7.2;5.1;;;;;;;4.63;76.99609;952.6461;;;;
2024/01/31 00:38:28;;;;;;;5;3.6;;;;;;;4.66;76.78809;952.6478;;;;
2024/01/31 00:40:53;;;;;;;4.8;3.2;;;;;;;4.59;76.94629;952.718;;;;
2024/01/31 00:43:18;;;;;;;4.3;2.7;;;;;;;4.66;76.5293;952.6708;;;;
2024/01/31 00:45:43;;;;;;;4.5;2.9;;;;;;;4.6;76.77734;952.704;;;;
2024/01/31 00:48:08;;;;;;;4.9;3.2;;;;;;;4.58;77.62988;952.6724;;;;
2024/01/31 00:50:33;;;;;;;5.7;3.8;;;;;;;4.57;77.62793;952.6873;;;;
2024/01/31 00:52:58;;;;;;;7.3;3.7;;;;;;;4.55;77.4541;952.6965;;;;
2024/01/31 00:55:23;;;;;;;6.3;4;;;;;;;4.58;77.41504;952.6976;;;;
2024/01/31 00:57:49;;;;;;;6.1;3.3;;;;;;;4.66;77.21484;952.7358;;;;
2024/01/31 01:00:14;;;;;;;4.3;2.6;;;;;;;4.67;77.04883;952.6931;;;;
2024/01/31 01:02:40;;;;;;;4.2;2.8;;;;;;;4.67;77.09375;952.6931;;;;
2024/01/31 01:05:04;;;;;;;4.8;2.9;;;;;;;4.61;77.1709;952.7488;;;;
2024/01/31 01:07:29;;;;;;;5.7;3.7;;;;;;;4.53;77.29297;952.7626;;;;
2024/01/31 01:09:54;;;;;;;4.7;4.1;;;;;;;4.53;77.28027;952.7481;;;;
2024/01/31 01:12:19;;;;;;;4.9;3.9;;;;;;;4.55;77.49902;952.743;;;;
2024/01/31 01:14:45;;;;;;;4.1;3.4;;;;;;;4.56;77.25293;952.7435;;;;
2024/01/31 01:17:10;;;;;;;5.3;3.7;;;;;;;4.53;77.48438;952.7254;;;;
2024/01/31 01:19:35;;;;;;;5.3;3.9;;;;;;;4.55;77.55566;952.6656;;;;
2024/01/31 01:22:00;;;;;;;3.8;3.1;;;;;;;4.58;77.52832;952.7411;;;;
2024/01/31 01:24:25;;;;;;;5.8;3.2;;;;;;;4.59;77.42969;952.6722;;;;
2024/01/31 01:26:50;;;;;;;4.1;3;;;;;;;4.66;77.07031;952.726;;;;
2024/01/31 01:29:15;;;;;;;4.5;2.7;;;;;;;4.64;77.23438;952.7015;;;;
2024/01/31 01:31:40;;;;;;;5;2.8;;;;;;;4.61;77.27441;952.7286;;;;
2024/01/31 01:34:05;;;;;;;3.8;2.7;;;;;;;4.59;76.93262;952.6941;;;;
2024/01/31 01:36:31;;;;;;;3.9;2.7;;;;;;;4.49;77.3877;952.7014;;;;
2024/01/31 01:38:56;;;;;;;4.4;3.1;;;;;;;4.48;77.49707;952.7595;;;;
2024/01/31 01:41:21;;;;;;;4.9;2.9;;;;;;;4.49;77.28613;952.5878;;;;
2024/01/31 01:43:46;;;;;;;3.8;2.7;;;;;;;4.49;77.20801;952.6547;;;;
2024/01/31 01:46:12;;;;;;;4.6;2.9;;;;;;;4.37;77.54492;952.6833;;;;
2024/01/31 01:48:36;;;;;;;3.9;2.5;;;;;;;4.43;77.46777;952.6611;;;;
2024/01/31 01:51:01;;;;;;;4.9;2.9;;;;;;;4.53;77.20313;952.6086;;;;
2024/01/31 01:53:27;;;;;;;7.1;3;;;;;;;4.49;77.30762;952.615;;;;
2024/01/31 01:55:52;;;;;;;5.4;2.9;;;;;;;4.5;77.24121;952.6417;;;;
2024/01/31 01:58:17;;;;;;;5.3;3;;;;;;;4.42;77.47559;952.5804;;;;
2024/01/31 02:00:43;;;;;;;4;2.8;;;;;;;4.35;77.39551;952.5897;;;;
2024/01/31 02:03:07;;;;;;;5.9;3;;;;;;;4.26;77.66016;952.5625;;;;
2024/01/31 02:05:32;;;;;;;3.2;2.6;;;;;;;4.21;77.93359;952.4947;;;;
2024/01/31 02:07:58;;;;;;;4.1;3.2;;;;;;;4.1;78.34082;952.4471;;;;
2024/01/31 02:10:23;;;;;;;5.5;3;;;;;;;4.09;78.65234;952.5323;;;;
2024/01/31 02:12:48;;;;;;;6.1;3.3;;;;;;;4.18;78.40137;952.4996;;;;
2024/01/31 02:15:13;;;;;;;4.2;2.6;;;;;;;4.28;77.97852;952.4974;;;;
2024/01/31 02:17:38;;;;;;;4.3;2.5;;;;;;;4.27;77.93164;952.5183;;;;
2024/01/31 02:20:03;;;;;;;4;2.7;;;;;;;4.21;78.01172;952.4678;;;;
2024/01/31 02:22:28;;;;;;;3.9;2.5;;;;;;;4.16;78.14844;952.4319;;;;
2024/01/31 02:24:53;;;;;;;3.7;2.4;;;;;;;4.14;77.8418;952.4286;;;;
2024/01/31 02:27:18;;;;;;;3.1;2.5;;;;;;;4.07;78.21973;952.4057;;;;
2024/01/31 02:29:43;;;;;;;2.5;2;;;;;;;4.01;78.38086;952.4095;;;;
2024/01/31 02:32:09;;;;;;;4.3;2.2;;;;;;;4.01;78.2998;952.3582;;;;
2024/01/31 02:34:34;;;;;;;2.4;2;;;;;;;3.92;78.50879;952.2921;;;;
2024/01/31 02:36:59;;;;;;;2.1;1.9;;;;;;;3.9;78.66406;952.3148;;;;
2024/01/31 02:39:24;;;;;;;2.9;2;;;;;;;3.92;78.55371;952.2961;;;;
2024/01/31 02:41:49;;;;;;;3.1;2.1;;;;;;;3.97;78.42871;952.2092;;;;
2024/01/31 02:44:14;;;;;;;2.5;2.3;;;;;;;4.08;78.06738;952.2237;;;;
2024/01/31 02:46:39;;;;;;;4.5;3.2;;;;;;;3.89;78.74121;952.197;;;;
2024/01/31 02:49:07;;;;;;;9.5;4.1;;;;;;;4.08;78.4707;952.2511;;;;
2024/01/31 02:51:29;;;;;;;9.9;3.9;;;;;;;4.09;78.19141;952.1965;;;;
2024/01/31 02:53:54;;;;;;;4.7;2.6;;;;;;;4;78.41309;952.1772;;;;
2024/01/31 02:56:20;;;;;;;5.3;2.6;;;;;;;3.94;78.61426;952.2377;;;;
2024/01/31 02:58:45;;;;;;;6.3;2.6;;;;;;;3.83;79.08789;952.2411;;;;
2024/01/31 03:01:10;;;;;;;3.6;2.3;;;;;;;3.77;78.99902;952.129;;;;
2024/01/31 03:03:35;;;;;;;5;2.3;;;;;;;3.68;79.17285;952.2378;;;;
2024/01/31 03:06:00;;;;;;;4;2.5;;;;;;;3.64;79.2207;952.2089;;;;
2024/01/31 03:08:25;;;;;;;3.9;2.4;;;;;;;3.64;79.33301;952.2033;;;;
2024/01/31 03:10:50;;;;;;;3.5;2.4;;;;;;;3.64;79.99609;952.2798;;;;
2024/01/31 03:13:15;;;;;;;4.8;2.6;;;;;;;3.66;79.60645;952.2999;;;;
2024/01/31 03:15:41;;;;;;;3.2;2.5;;;;;;;3.77;79.02148;952.3337;;;;
2024/01/31 03:18:06;;;;;;;3.4;2.4;;;;;;;3.85;78.61914;952.3558;;;;
2024/01/31 03:20:33;;;;;;;3.6;2.6;;;;;;;3.7;79.05273;952.3801;;;;
2024/01/31 03:22:56;;;;;;;3.4;2.7;;;;;;;3.65;79.12305;952.35;;;;
2024/01/31 03:25:21;;;;;;;3.7;2.9;;;;;;;3.62;79.2959;952.3842;;;;
2024/01/31 03:27:46;;;;;;;3.6;2.7;;;;;;;3.49;79.60938;952.3276;;;;
2024/01/31 03:30:11;;;;;;;3.9;2.5;;;;;;;3.36;79.76367;952.41;;;;
2024/01/31 03:32:37;;;;;;;4.2;2.8;;;;;;;3.36;80.1123;952.4377;;;;
2024/01/31 03:35:02;;;;;;;5.4;2.9;;;;;;;3.29;80.21191;952.4974;;;;
2024/01/31 03:37:27;;;;;;;4.6;2.8;;;;;;;3.28;80.88379;952.4662;;;;
2024/01/31 03:39:52;;;;;;;3.7;2.7;;;;;;;3.27;81.12891;952.5189;;;;
2024/01/31 03:42:17;;;;;;;4.7;2.8;;;;;;;3.26;80.82324;952.4922;;;;
2024/01/31 03:44:42;;;;;;;4.8;3;;;;;;;3.18;80.86328;952.5635;;;;
2024/01/31 03:47:07;;;;;;;5.4;3.2;;;;;;;3.32;80.52051;952.5628;;;;
2024/01/31 03:49:33;;;;;;;4.4;2.9;;;;;;;3.43;80.02441;952.5222;;;;
2024/01/31 03:51:59;;;;;;;6.5;3.6;;;;;;;3.3;80.79785;952.617;;;;
2024/01/31 03:54:23;;;;;;;4.4;2.9;;;;;;;3.31;80.82031;952.6322;;;;
2024/01/31 03:56:48;;;;;;;3.8;2.6;;;;;;;3.26;81.08301;952.6923;;;;
2024/01/31 03:59:13;;;;;;;4.6;2.8;;;;;;;3.28;81.08594;952.7134;;;;
2024/01/31 04:02:42;;;;;;;4.4;2.8;;;;;;;3.29;81.05469;952.7209;;;;
2024/01/31 04:05:07;;;;;;;3.4;2.6;;;;;;;3.33;81.07422;952.7228;;;;
2024/01/31 04:07:32;;;;;;;4.1;2.8;;;;;;;3.29;81.18848;952.7862;;;;
2024/01/31 04:09:57;;;;;;;3.8;2.7;;;;;;;3.38;81.00195;952.8474;;;;
2024/01/31 04:12:22;;;;;;;3.9;2.8;;;;;;;3.4;80.99609;952.8259;;;;
2024/01/31 04:14:47;;;;;;;4.1;2.7;;;;;;;3.32;81.07031;952.8605;;;;
2024/01/31 04:17:12;;;;;;;3.4;2.8;;;;;;;3.34;81.04004;952.8223;;;;
2024/01/31 04:19:37;;;;;;;3.9;2.6;;;;;;;3.35;81.17676;952.8251;;;;
2024/01/31 04:22:02;;;;;;;5.2;2.6;;;;;;;3.34;81.18652;952.8434;;;;
2024/01/31 04:24:27;;;;;;;3;2.2;;;;;;;3.18;81.59473;952.7631;;;;
2024/01/31 04:26:52;;;;;;;3.2;2.5;;;;;;;3.3;81.1123;952.6728;;;;
2024/01/31 04:29:17;;;;;;;4.3;3.3;;;;;;;3.37;81.1709;952.706;;;;
2024/01/31 04:31:42;;;;;;;4.6;3.5;;;;;;;3.45;80.79297;952.6765;;;;
2024/01/31 04:34:08;;;;;;;4.5;3.3;;;;;;;3.28;81.2998;952.7024;;;;
2024/01/31 04:36:32;;;;;;;4.5;3.4;;;;;;;3.27;81.17383;952.6842;;;;
2024/01/31 04:38:58;;;;;;;4.4;3.2;;;;;;;3.17;81.81738;952.7042;;;;
2024/01/31 04:41:23;;;;;;;4.7;3.4;;;;;;;3.18;82.04395;952.7433;;;;
2024/01/31 04:43:48;;;;;;;6.3;3.3;;;;;;;3.13;82.03125;952.6958;;;;
2024/01/31 04:46:13;;;;;;;4.3;2.8;;;;;;;3.34;81.56934;952.6815;;;;
2024/01/31 04:48:38;;;;;;;3.4;2.5;;;;;;;3.36;81.28125;952.6962;;;;
2024/01/31 04:51:03;;;;;;;3.5;2.2;;;;;;;3.34;81.3457;952.7422;;;;
2024/01/31 04:53:28;;;;;;;4.7;2.4;;;;;;;3.26;81.70996;952.8362;;;;
2024/01/31 04:55:53;;;;;;;3.3;2.4;;;;;;;3.24;81.71875;952.8077;;;;
2024/01/31 04:58:19;;;;;;;2.9;2.2;;;;;;;3.16;82.00684;952.8469;;;;
2024/01/31 05:00:44;;;;;;;2.6;2.1;;;;;;;3.22;82.08398;952.7919;;;;
2024/01/31 05:03:09;;;;;;;2.2;1.6;;;;;;;3.36;81.50586;952.7899;;;;
2024/01/31 05:05:34;;;;;;;1.7;1.5;;;;;;;3.34;81.56934;952.8091;;;;
2024/01/31 05:07:59;;;;;;;2.1;1.7;;;;;;;3.29;81.55762;952.7932;;;;
2024/01/31 05:10:25;;;;;;;3.2;1.7;;;;;;;3.21;81.65625;952.7924;;;;
2024/01/31 05:12:49;;;;;;;2.2;1.9;;;;;;;3.25;81.71875;952.7859;;;;
2024/01/31 05:15:14;;;;;;;2.8;2.4;;;;;;;3.35;81.42383;952.7615;;;;
2024/01/31 05:17:39;;;;;;;5.1;2.6;;;;;;;3.34;81.55664;952.6717;;;;
2024/01/31 05:20:05;;;;;;;4.4;2.6;;;;;;;3.42;81.16797;952.6848;;;;
2024/01/31 05:22:30;;;;;;;8.3;5;;;;;;;3.45;81.12988;952.6141;;;;
2024/01/31 05:24:55;;;;;;;10;6.8;;;;;;;3.47;81.06641;952.7288;;;;
2024/01/31 05:27:20;;;;;;;5.9;4;;;;;;;3.42;81.09082;952.6069;;;;
2024/01/31 05:29:45;;;;;;;6.2;3.8;;;;;;;3.42;81.125;952.7156;;;;
2024/01/31 05:32:10;;;;;;;5.2;3.4;;;;;;;3.48;80.79883;952.6789;;;;
2024/01/31 05:34:35;;;;;;;5;3.3;;;;;;;3.52;80.64844;952.6089;;;;
2024/01/31 05:37:01;;;;;;;7.1;4;;;;;;;3.47;80.68652;952.6629;;;;
2024/01/31 05:39:25;;;;;;;8.8;4.7;;;;;;;3.4;81.0752;952.6981;;;;
2024/01/31 05:41:51;;;;;;;6.8;4.2;;;;;;;3.44;80.9375;952.7042;;;;
2024/01/31 05:44:16;;;;;;;5.4;3.2;;;;;;;3.35;81.29102;952.735;;;;
2024/01/31 05:46:41;;;;;;;4.2;2.8;;;;;;;3.32;81.2168;952.6469;;;;
2024/01/31 05:49:06;;;;;;;4.3;2.8;;;;;;;3.3;81.35938;952.7102;;;;
2024/01/31 05:51:31;;;;;;;3.3;2.4;;;;;;;3.38;81.10547;952.7082;;;;
2024/01/31 05:53:56;;;;;;;3;2.1;;;;;;;3.37;80.6875;952.6298;;;;
2024/01/31 05:56:21;;;;;;;2.8;1.7;;;;;;;3.36;80.74023;952.6541;;;;
2024/01/31 05:58:46;;;;;;;2.8;1.8;;;;;;;3.38;80.73242;952.6811;;;;
2024/01/31 06:01:11;;;;;;;2.9;2.2;;;;;;;3.4;80.72656;952.6571;;;;
2024/01/31 06:03:36;;;;;;;4;2.6;;;;;;;3.45;80.64746;952.6315;;;;
2024/01/31 06:06:02;;;;;;;4.3;3;;;;;;;3.54;81.08008;952.7134;;;;
2024/01/31 06:08:27;;;;;;;3.9;2.9;;;;;;;3.67;80.40723;952.8021;;;;
2024/01/31 06:10:54;;;;;;;4.9;3.1;;;;;;;3.59;80.50586;952.7495;;;;
2024/01/31 06:13:17;;;;;;;4.1;2.7;;;;;;;3.59;80.36035;952.8093;;;;
2024/01/31 06:15:42;;;;;;;4.3;3.5;;;;;;;3.56;80.3418;952.7924;;;;
2024/01/31 06:18:07;;;;;;;5;3.3;;;;;;;3.41;80.77344;952.812;;;;
2024/01/31 06:20:33;;;;;;;4.5;2.8;;;;;;;3.34;81.0293;952.7892;;;;
2024/01/31 06:22:57;;;;;;;3.9;2.9;;;;;;;3.37;81.05859;952.7885;;;;
2024/01/31 06:25:22;;;;;;;3.2;2.5;;;;;;;3.47;80.57422;952.7432;;;;
2024/01/31 06:27:48;;;;;;;4;2.6;;;;;;;3.59;79.9873;952.7406;;;;
2024/01/31 06:30:20;;;;;;;2.9;2.6;;;;;;;3.55;80.00293;952.7266;;;;
2024/01/31 06:32:47;;;;;;;5.7;3.3;;;;;;;3.47;80.34863;952.6849;;;;
2024/01/31 06:35:03;;;;;;;5.1;3;;;;;;;3.49;80.74414;952.7167;;;;
2024/01/31 06:37:28;;;;;;;5.4;3.4;;;;;;;3.46;80.77246;952.7173;;;;
2024/01/31 06:39:53;;;;;;;7.2;4.6;;;;;;;3.56;79.89258;952.7366;;;;
2024/01/31 06:42:18;;;;;;;10.5;4.9;;;;;;;3.48;80.70898;952.7476;;;;
2024/01/31 06:44:43;;;;;;;6.9;4.8;;;;;;;3.48;80.97852;952.8042;;;;
2024/01/31 06:47:08;;;;;;;9;5;;;;;;;3.58;80.70508;952.8308;;;;
2024/01/31 06:49:33;;;;;;;9.4;6.3;;;;;;;3.67;80.50879;952.9133;;;;
2024/01/31 06:51:59;;;;;;;9;6.5;;;;;;;3.59;80.62793;952.9233;;;;
2024/01/31 06:54:24;;;;;;;7.9;6.1;;;;;;;3.64;80.93066;952.8756;;;;
2024/01/31 06:56:49;;;;;;;8.9;6.5;;;;;;;3.71;80.81836;952.9132;;;;
2024/01/31 06:59:14;;;;;;;9.5;6.7;;;;;;;3.68;81.13965;952.998;;;;
2024/01/31 07:01:39;;;;;;;9.5;6.9;;;;;;;3.66;81.16797;952.9938;;;;
2024/01/31 07:04:04;;;;;;;8.4;5.9;;;;;;;3.69;80.95996;952.9819;;;;
2024/01/31 07:06:29;;;;;;;6.4;5.1;;;;;;;3.69;80.61133;952.9694;;;;
2024/01/31 07:08:54;;;;;;;5.7;3.6;;;;;;;3.71;80.17871;953.0455;;;;
2024/01/31 07:11:19;;;;;;;4.3;3.6;;;;;;;3.73;80.10449;953.1696;;;;
2024/01/31 07:13:45;;;;;;;5.8;4.1;;;;;;;3.76;80.53711;953.1909;;;;
2024/01/31 07:16:09;;;;;;;6.2;5;;;;;;;3.78;80.75391;953.1436;;;;
2024/01/31 07:18:35;;;;;;;10.8;5.7;;;;;;;3.86;80.43164;953.2086;;;;
2024/01/31 07:21:00;;;;;;;9.2;6.2;;;;;;;3.87;80.48828;953.2173;;;;
2024/01/31 07:23:25;;;;;;;10.9;6.8;;;;;;;3.81;80.41016;953.2881;;;;
2024/01/31 07:25:50;;;;;;;9.6;5.2;;;;;;;3.81;80.26465;953.2339;;;;
2024/01/31 07:28:15;;;;;;;6.6;4.6;;;;;;;3.84;80.15723;953.3306;;;;
2024/01/31 07:30:40;;;;;;;6.6;4.4;;;;;;;3.86;80.56641;953.3885;;;;
2024/01/31 07:33:05;;;;;;;6.7;4.6;;;;;;;3.9;80.5752;953.3875;;;;
2024/01/31 07:35:30;;;;;;;9;4.9;;;;;;;3.98;80.25195;953.4146;;;;
2024/01/31 07:37:56;;;;;;;9.3;5.2;;;;;;;4.01;80.20215;953.3814;;;;
2024/01/31 07:40:21;;;;;;;8.1;5.1;;;;;;;4.05;80.11719;953.322;;;;
2024/01/31 07:42:46;;;;;;;7.3;5.1;;;;;;;4.05;80.11719;953.3283;;;;
2024/01/31 07:45:11;;;;;;;7.5;5.1;;;;;;;4.03;80.28418;953.2839;;;;
2024/01/31 07:47:37;;;;;;;8.1;5.7;;;;;;;4.05;80.33105;953.3283;;;;
2024/01/31 07:50:01;;;;;;;7.6;5.5;;;;;;;4.08;79.97949;953.3044;;;;
2024/01/31 07:52:27;;;;;;;6;4.4;;;;;;;4.11;79.83887;953.3109;;;;
2024/01/31 07:54:51;;;;;;;6.4;4.7;;;;;;;4.2;79.41699;953.3049;;;;
2024/01/31 07:57:17;;;;;;;5.1;4;;;;;;;4.36;78.74805;953.2943;;;;
2024/01/31 07:59:42;;;;;;;5.2;3.8;;;;;;;4.3;79.25391;953.3928;;;;
2024/01/31 08:02:07;;;;;;;5.4;3.6;;;;;;;4.42;78.88281;953.4016;;;;
2024/01/31 08:04:32;;;;;;;6.8;4;;;;;;;4.44;79.05664;953.3664;;;;
2024/01/31 08:06:57;;;;;;;4.8;3.5;;;;;;;4.55;78.29883;953.2813;;;;
2024/01/31 08:09:23;;;;;;;4.3;3.3;;;;;;;4.61;78.15234;953.3629;;;;
2024/01/31 08:11:48;;;;;;;5.4;3.2;;;;;;;4.7;78.25879;953.3837;;;;
2024/01/31 08:14:13;;;;;;;3.9;3.1;;;;;;;4.86;77.75977;953.3567;;;;
2024/01/31 08:16:38;;;;;;;3.9;3.1;;;;;;;4.98;77.4873;953.3767;;;;
2024/01/31 08:19:03;;;;;;;4;2.9;;;;;;;5.21;76.86328;953.3683;;;;
2024/01/31 08:21:28;;;;;;;3.1;2.4;;;;;;;5.33;76.19824;953.3201;;;;
2024/01/31 08:23:53;;;;;;;6.8;2.9;;;;;;;5.45;75.43848;953.3361;;;;
2024/01/31 08:26:18;;;;;;;4.2;3.5;;;;;;;5.5;74.68262;953.358;;;;
2024/01/31 08:28:44;;;;;;;5.1;3.9;;;;;;;5.6;74.34961;953.3049;;;;
2024/01/31 08:31:08;;;;;;;9.2;6.3;;;;;;;5.75;73.85742;953.2964;;;;
2024/01/31 08:33:33;;;;;;;10.2;7.1;;;;;;;5.89;73.68848;953.318;;;;
2024/01/31 08:35:59;;;;;;;9.4;6.3;;;;;;;5.92;73.5918;953.3386;;;;
2024/01/31 08:38:24;;;;;;;10.2;5.5;;;;;;;6.01;72.97559;953.3137;;;;
2024/01/31 08:40:49;;;;;;;7.1;4.9;;;;;;;5.89;72.72656;953.3398;;;;
2024/01/31 08:43:14;;;;;;;7.7;4.7;;;;;;;5.94;73.4248;953.3237;;;;
2024/01/31 08:45:39;;;;;;;11.7;6.1;;;;;;;6.04;73.7832;953.3428;;;;
2024/01/31 08:48:04;;;;;;;12.7;6.5;;;;;;;6.28;73.02051;953.3123;;;;
2024/01/31 08:50:29;;;;;;;7.9;5.1;;;;;;;6.36;71.87012;953.3173;;;;
2024/01/31 08:52:55;;;;;;;11.4;5.9;;;;;;;6.59;70.95703;953.3032;;;;
2024/01/31 08:55:19;;;;;;;11.2;5.9;;;;;;;6.77;69.98047;953.2695;;;;
2024/01/31 08:57:44;;;;;;;9.1;5.3;;;;;;;6.93;69.69141;953.1429;;;;
2024/01/31 09:00:11;;;;;;;12.6;6.5;;;;;;;7.24;68.90137;953.21;;;;
2024/01/31 09:02:35;;;;;;;8.1;4.4;;;;;;;7.45;65.90918;953.1677;;;;
2024/01/31 09:05:00;;;;;;;9.2;4.8;;;;;;;7.29;65.59082;953.1;;;;
2024/01/31 09:07:26;;;;;;;13;5.7;;;;;;;7.27;66.16406;953.0419;;;;
2024/01/31 09:09:51;;;;;;;10.3;5.2;;;;;;;7.47;66.00195;952.9736;;;;
2024/01/31 09:12:16;;;;;;;6.6;3.7;;;;;;;7.76;66.22656;952.9214;;;;
2024/01/31 09:14:42;;;;;;;5.5;2.8;;;;;;;7.9;63.68555;952.8733;;;;
2024/01/31 09:17:07;;;;;;;4.4;2.6;;;;;;;8.09;63.28223;952.7961;;;;
2024/01/31 09:19:31;;;;;;;8.3;2.9;;;;;;;8.35;61.84277;952.8191;;;;
2024/01/31 09:21:56;;;;;;;13.5;5.3;;;;;;;8.48;61.55566;952.8361;;;;
2024/01/31 09:24:21;;;;;;;10.3;4.7;;;;;;;8.65;61.76172;952.7996;;;;
2024/01/31 09:26:47;;;;;;;10.5;3.7;;;;;;;8.97;61.13574;952.7305;;;;
2024/01/31 09:29:12;;;;;;;9.1;4.3;;;;;;;9.17;61.20996;952.7282;;;;
2024/01/31 09:31:37;;;;;;;6.9;4.2;;;;;;;9.45;60.7373;952.6756;;;;
2024/01/31 09:34:03;;;;;;;8.1;4.1;;;;;;;9.85;60.16602;952.5886;;;;
2024/01/31 09:36:27;;;;;;;16.6;4.6;;;;;;;9.95;58.36719;952.5436;;;;
2024/01/31 09:38:52;;;;;;;6.7;3.5;;;;;;;10.05;57.88965;952.4725;;;;
2024/01/31 09:41:17;;;;;;;5.6;2.9;;;;;;;10.37;56.63281;952.561;;;;
2024/01/31 09:43:42;;;;;;;5.2;2.7;;;;;;;10.55;56.26758;952.4055;;;;
2024/01/31 09:46:08;;;;;;;5.5;3;;;;;;;10.75;54.79688;952.4266;;;;
2024/01/31 09:48:33;;;;;;;8.2;3.4;;;;;;;10.81;53.8457;952.4069;;;;
2024/01/31 09:50:58;;;;;;;5.8;3.2;;;;;;;10.59;54.05859;952.4037;;;;
2024/01/31 09:53:23;;;;;;;5.4;3.6;;;;;;;10.57;54.47754;952.2867;;;;
2024/01/31 09:55:48;;;;;;;13;4.7;;;;;;;10.88;54.97461;952.3361;;;;
2024/01/31 09:58:15;;;;;;;12.9;5.8;;;;;;;11.18;53.90332;952.3192;;;;
2024/01/31 10:00:39;;;;;;;10;4.6;;;;;;;11.4;52.06543;952.2731;;;;
2024/01/31 10:03:04;;;;;;;5.3;2.8;;;;;;;11.55;50.65332;952.2593;;;;
2024/01/31 10:05:28;;;;;;;4.2;2.4;;;;;;;11.72;50.60352;952.2101;;;;
2024/01/31 10:07:54;;;;;;;7.5;2.8;;;;;;;12.01;50.58105;952.2137;;;;
2024/01/31 10:10:19;;;;;;;7.6;3.1;;;;;;;12.38;50.15332;952.1055;;;;
2024/01/31 10:12:44;;;;;;;7.8;3.2;;;;;;;12.32;51.22461;952.065;;;;
2024/01/31 10:15:10;;;;;;;6.8;3.4;;;;;;;12.29;51.58789;952.1033;;;;
2024/01/31 10:17:35;;;;;;;4.4;2.6;;;;;;;12.48;49.94629;952.0612;;;;
2024/01/31 10:20:01;;;;;;;4.3;2.1;;;;;;;12.47;49.38379;952.0258;;;;
2024/01/31 10:22:24;;;;;;;4.2;1.9;;;;;;;12.78;49.47559;952.0101;;;;
2024/01/31 10:24:50;;;;;;;3.4;1.8;;;;;;;13.01;47.51563;951.9406;;;;
2024/01/31 10:27:17;;;;;;;3;1.8;;;;;;;12.95;47.69336;951.9224;;;;
2024/01/31 10:29:40;;;;;;;6.8;2.2;;;;;;;12.75;48.64648;951.9088;;;;
2024/01/31 10:32:05;;;;;;;4.2;1.9;;;;;;;12.74;48.01563;951.8862;;;;
2024/01/31 10:34:30;;;;;;;4.6;2;;;;;;;12.67;48.47754;951.8742;;;;
2024/01/31 10:36:56;;;;;;;5.2;2.1;;;;;;;12.83;49.58496;951.8109;;;;
2024/01/31 10:39:21;;;;;;;3.9;1.6;;;;;;;12.91;48.52734;951.7824;;;;
2024/01/31 10:41:46;;;;;;;4.4;1.9;;;;;;;13.34;47.79297;951.798;;;;
2024/01/31 10:44:13;;;;;;;4.8;1.7;;;;;;;13.66;46.54004;951.7377;;;;
2024/01/31 10:46:36;;;;;;;2.5;1.8;;;;;;;13.8;45.41602;951.6531;;;;
2024/01/31 10:49:01;;;;;;;2.1;1.4;;;;;;;14.05;44.25684;951.7191;;;;
2024/01/31 10:51:27;;;;;;;2.9;1.6;;;;;;;14.05;44.33789;951.7239;;;;
2024/01/31 10:53:52;;;;;;;3.4;1.7;;;;;;;13.83;45.21289;951.6339;;;;
2024/01/31 10:56:17;;;;;;;3.7;1.6;;;;;;;13.56;45.27637;951.5242;;;;
2024/01/31 10:58:42;;;;;;;4.2;1.5;;;;;;;13.52;45.22656;951.5691;;;;
2024/01/31 11:01:07;;;;;;;1.8;1.5;;;;;;;13.79;44.50684;951.5712;;;;
2024/01/31 11:03:32;;;;;;;3.3;1.6;;;;;;;13.81;44.58984;951.4844;;;;
2024/01/31 11:05:57;;;;;;;2;1.5;;;;;;;13.75;44.39941;951.5344;;;;
2024/01/31 11:08:22;;;;;;;4.6;1.7;;;;;;;13.67;44.56348;951.4746;;;;
2024/01/31 11:10:47;;;;;;;2.7;1.3;;;;;;;13.48;44.83105;951.4018;;;;
2024/01/31 11:13:13;;;;;;;1.5;1.3;;;;;;;13.34;44.42578;951.382;;;;
2024/01/31 11:15:38;;;;;;;3.1;1.6;;;;;;;13.14;44.44043;951.3391;;;;
2024/01/31 11:18:04;;;;;;;6.3;1.7;;;;;;;13.02;46.16309;951.3876;;;;
2024/01/31 11:20:29;;;;;;;3.6;1.7;;;;;;;12.94;46.1416;951.372;;;;
2024/01/31 11:22:54;;;;;;;3.7;1.8;;;;;;;12.8;45.48438;951.3488;;;;
2024/01/31 11:25:19;;;;;;;3.3;2.3;;;;;;;12.72;46.12988;951.3325;;;;
2024/01/31 11:27:44;;;;;;;4.6;2.2;;;;;;;12.66;46.22656;951.3272;;;;
2024/01/31 11:30:09;;;;;;;3.7;1.8;;;;;;;12.59;46.32324;951.2847;;;;
2024/01/31 11:32:35;;;;;;;3.5;1.8;;;;;;;12.54;46.87988;951.2506;;;;
2024/01/31 11:35:00;;;;;;;4.1;1.7;;;;;;;12.47;46.82617;951.218;;;;
2024/01/31 11:37:24;;;;;;;4.6;1.5;;;;;;;12.49;48.15918;951.2377;;;;
2024/01/31 11:39:49;;;;;;;2.8;1.6;;;;;;;12.42;48.64453;951.2072;;;;
2024/01/31 11:42:14;;;;;;;4.1;1.6;;;;;;;12.41;48.47266;951.0753;;;;
2024/01/31 11:44:39;;;;;;;2.6;1.5;;;;;;;12.33;48.20996;951.125;;;;
2024/01/31 11:47:05;;;;;;;3.7;1.6;;;;;;;12.15;49.29004;951.1573;;;;
2024/01/31 11:49:30;;;;;;;2.8;1.8;;;;;;;11.91;49.80078;951.0895;;;;
2024/01/31 11:51:55;;;;;;;2.6;1.7;;;;;;;11.98;50.78418;951.1705;;;;
2024/01/31 11:54:20;;;;;;;2.2;1.7;;;;;;;12.08;51.13867;951.1211;;;;
2024/01/31 11:56:45;;;;;;;3.9;1.9;;;;;;;12.03;51.5;951.0936;;;;
2024/01/31 11:59:10;;;;;;;3.1;1.8;;;;;;;12.02;52.07129;951.1206;;;;
2024/01/31 12:01:35;;;;;;;5.4;2.2;;;;;;;11.95;51.39844;951.1002;;;;
2024/01/31 12:04:00;;;;;;;2.6;1.6;;;;;;;11.9;51.30078;951.0748;;;;
2024/01/31 12:06:26;;;;;;;2.8;1.7;;;;;;;11.83;50.57129;950.9735;;;;
2024/01/31 12:08:51;;;;;;;2.5;1.6;;;;;;;11.8;50.625;951.0618;;;;
2024/01/31 12:11:16;;;;;;;2.3;1.6;;;;;;;11.64;51.39648;951.0375;;;;
2024/01/31 12:13:41;;;;;;;2.3;1.6;;;;;;;11.48;52.29102;950.9963;;;;
2024/01/31 12:16:06;;;;;;;2.7;1.6;;;;;;;11.35;51.81836;950.9494;;;;
2024/01/31 12:18:31;;;;;;;4.3;1.7;;;;;;;11.13;50.82129;950.9224;;;;
2024/01/31 12:20:56;;;;;;;2.4;1.4;;;;;;;11.1;50.16602;950.9712;;;;
2024/01/31 12:23:22;;;;;;;2.1;1.6;;;;;;;11.05;49.96387;950.9553;;;;
2024/01/31 12:25:47;;;;;;;3.2;1.8;;;;;;;11;49.74316;950.9737;;;;
2024/01/31 12:28:12;;;;;;;3.2;1.6;;;;;;;10.97;50.56152;950.9927;;;;
2024/01/31 12:30:37;;;;;;;2.1;1.7;;;;;;;10.96;50.9834;950.9612;;;;
2024/01/31 12:33:02;;;;;;;2.3;1.7;;;;;;;10.96;50.89355;950.924;;;;
2024/01/31 12:35:27;;;;;;;2.6;1.6;;;;;;;10.84;50.31836;950.9037;;;;
2024/01/31 12:37:52;;;;;;;2.3;1.7;;;;;;;10.75;51.08496;950.9215;;;;
2024/01/31 12:40:17;;;;;;;3.1;1.7;;;;;;;10.72;51.20605;950.9127;;;;
2024/01/31 12:42:43;;;;;;;3;2.1;;;;;;;10.89;51.1582;950.897;;;;
2024/01/31 12:45:08;;;;;;;3.7;1.9;;;;;;;10.77;51.33789;950.9357;;;;
2024/01/31 12:47:34;;;;;;;2.5;1.8;;;;;;;10.86;50.8584;950.9266;;;;
2024/01/31 12:49:58;;;;;;;2.6;1.8;;;;;;;10.83;50.16895;950.9107;;;;
2024/01/31 12:52:24;;;;;;;2.8;1.8;;;;;;;10.88;50.52832;950.8681;;;;
2024/01/31 12:54:48;;;;;;;2.6;1.8;;;;;;;10.82;49.67676;950.8403;;;;
2024/01/31 12:57:13;;;;;;;5.4;2;;;;;;;10.86;49.52148;950.8828;;;;
2024/01/31 12:59:38;;;;;;;2.3;1.6;;;;;;;10.97;49.83008;950.8733;;;;
2024/01/31 13:02:04;;;;;;;2.1;1.6;;;;;;;10.98;49.89941;950.9124;;;;
2024/01/31 13:04:28;;;;;;;1.9;1.6;;;;;;;10.96;49.72754;950.8491;;;;
2024/01/31 13:06:53;;;;;;;2.9;1.6;;;;;;;10.96;49.63477;950.7628;;;;
2024/01/31 13:09:19;;;;;;;2.5;1.7;;;;;;;11;50.35938;950.8036;;;;
2024/01/31 13:11:44;;;;;;;2.2;1.7;;;;;;;11.01;49.9502;950.8084;;;;
2024/01/31 13:14:10;;;;;;;4.4;2.1;;;;;;;10.89;49.60352;950.8572;;;;
2024/01/31 13:16:35;;;;;;;3.4;1.8;;;;;;;10.74;49.76953;950.7929;;;;
2024/01/31 13:18:59;;;;;;;2.6;2;;;;;;;10.72;49.26465;950.8688;;;;
2024/01/31 13:21:35;;;;;;;1.8;1.6;;;;;;;10.71;49.11523;950.8653;;;;
2024/01/31 13:23:57;;;;;;;2.8;1.9;;;;;;;10.64;49.09473;950.8546;;;;
2024/01/31 13:26:22;;;;;;;3.1;1.9;;;;;;;10.69;49.12402;950.7651;;;;
2024/01/31 13:28:47;;;;;;;3.5;2.1;;;;;;;10.61;48.9668;950.7985;;;;
2024/01/31 13:31:13;;;;;;;3.8;2;;;;;;;10.55;49.42773;950.8722;;;;
2024/01/31 13:33:38;;;;;;;3.5;1.8;;;;;;;10.5;49.02246;950.889;;;;
2024/01/31 13:36:02;;;;;;;3.9;1.7;;;;;;;10.53;48.84375;950.8376;;;;
2024/01/31 13:38:27;;;;;;;3.4;1.7;;;;;;;10.62;49.05957;950.7903;;;;
2024/01/31 13:40:53;;;;;;;3.4;1.7;;;;;;;10.73;49.59766;950.7227;;;;
2024/01/31 13:43:18;;;;;;;2.2;1.8;;;;;;;10.81;49.7666;950.7093;;;;
2024/01/31 13:45:43;;;;;;;3.2;1.8;;;;;;;10.84;50.34082;950.7108;;;;
2024/01/31 13:48:08;;;;;;;5.2;1.8;;;;;;;10.89;49.70703;950.5759;;;;
2024/01/31 13:50:33;;;;;;;2.6;1.8;;;;;;;10.89;48.62207;950.651;;;;
2024/01/31 13:52:58;;;;;;;2.3;1.5;;;;;;;10.89;48.93066;950.6462;;;;
2024/01/31 13:55:23;;;;;;;2.8;1.6;;;;;;;10.89;48.70215;950.7115;;;;
2024/01/31 13:57:48;;;;;;;2.1;1.7;;;;;;;10.91;48.40625;950.5995;;;;
2024/01/31 14:00:13;;;;;;;2.2;1.5;;;;;;;10.94;48.44434;950.6619;;;;
2024/01/31 14:02:39;;;;;;;2;1.6;;;;;;;10.84;47.42773;950.6008;;;;
2024/01/31 14:05:04;;;;;;;2.3;1.5;;;;;;;10.86;47.48828;950.5497;;;;
2024/01/31 14:07:28;;;;;;;2.5;1.6;;;;;;;10.77;47.84277;950.5333;;;;
2024/01/31 14:09:54;;;;;;;2.3;1.7;;;;;;;10.79;47.52441;950.5648;;;;
2024/01/31 14:12:19;;;;;;;2.1;1.7;;;;;;;10.83;47.71191;950.568;;;;
2024/01/31 14:14:44;;;;;;;2.1;1.4;;;;;;;10.81;47.79004;950.5444;;;;
2024/01/31 14:17:09;;;;;;;2.2;1.5;;;;;;;10.85;48.87988;950.4139;;;;
2024/01/31 14:19:36;;;;;;;2.6;1.7;;;;;;;10.85;48.71973;950.4738;;;;
2024/01/31 14:22:00;;;;;;;3.9;1.7;;;;;;;10.88;49.07715;950.4425;;;;